AirNav   Air Wisconsin pilot careers
 
 880 users online  

PALP Alpine Airstrip
Deadhorse, Alaska, USA


FAA INFORMATION EFFECTIVE 11 OCTOBER 2018

Location

FAA Identifier: AK15
Lat/Long: 70-20-39.4000N / 150-56-41.1000W
70-20.656667N / 150-56.685000W
70.3442778 / -150.9447500
(estimated)
Elevation: 21.4 ft. / 6.5 m (surveyed)
Variation: 17E (2020)
From city: 53 miles W of DEADHORSE, AK
Time zone: UTC -8 (UTC -9 during Standard Time)

Airport Operations

Airport use: Private use. Permission required prior to landing
Activation date: 02/2000
Control tower: no
ARTCC: ANCHORAGE CENTER
FSS: DEADHORSE FLIGHT SERVICE STATION [907-659-2505]
Alternate FSS: FAI FAIRBANKS FLIGHT SERVICE STATION [1-866-248-6516]
NOTAMs facility: FDC (NOTAM-D service not available)
Attendance: IREG
Wind indicator: lighted
Segmented circle: no
Lights: ACTVT MIRL RY 03/21; PAPI RYS 03 & 21, ODAL RY 03/21, & REIL RY 03 - 122.8.

Airport Communications

UNICOM: 122.8
WX ASOS at AQT (8 nm S): 135.35 (907-480-5577)

Nearby radio navigation aids

NDB name  Hdg/Dist  Freq  Var  ID
NUIQSUT VILLAGE349/8.024119EUQS ..- --.- ...
PITSAND256/26.529016EPYC .--. -.-- -.-.

Airport Services

Runway Information

Runway 3/21

Dimensions: 5005 x 100 ft. / 1526 x 30 m
Surface: gravel
Runway edge lights: medium intensity
RUNWAY 3  RUNWAY 21
Latitude: 70-20.407540N70-20.905088N
Longitude: 150-57.653662W150-55.715818W
Elevation: 20.8 ft.20.8 ft.
Traffic pattern: leftleft
Markings: nonprecision
Visual slope indicator: 4-light PAPI on left (3.15 degrees glide path)4-light PAPI on left (3.16 degrees glide path)
Approach lights: ODALS: omnidirectional approach lighting systemODALS: omnidirectional approach lighting system
Runway end identifier lights: yesyes
Touchdown point: yes, no lightsyes, no lights
Obstructions: 144 ft. tower, lightednone

Airport Ownership and Management from official FAA records

Ownership: Privately-owned
Owner: CONOCO PHILLIPS, INC
PO BOX 100360
ANCHORAGE, AK 99501-0360
Phone 907-670-4005
Manager: JOHN MURRY
700 G STREET
ANCHORAGE, AK 99501
Phone 907-670-4005
ADDITIONAL CONTACT: MIKE RODRIGUEZ 907-670-4048

Additional Remarks

E158 ASSOCIATED WITH SAWRS ONLY.

Instrument Procedures

There are no published instrument procedures at PALP.

Some nearby airports with instrument procedures:

PAQT - Nuiqsut Airport (8 nm S)
PASC - Deadhorse Airport (51 nm E)
 
Loc | Ops | Rwys | IFR | FBO | Links
Com | Nav | Svcs | Stats | Notes

Crowley
 
Area around PALP (Alpine Airstrip)
 
Road maps at: MapQuest Bing Google
 
Aerial photo
No photo
 
Sectional chart

 
Airport distance calculator
Flying to Alpine Airstrip? Find the distance to fly.

From to PALP

Sunrise and sunset
Times for 15-Oct-2018
 Local
(UTC-8)
 Zulu
(UTC)
Morning civil twilight08:1616:16
Sunrise09:2017:20
Sunset18:1902:19
Evening civil twilight19:2303:23

Current date and time
Zulu (UTC)  16-Oct-2018 02:42:37
Local (UTC-8)  15-Oct-2018 18:42:37
 
METAR
PALP 160145Z 06011KT 7SM FEW006 FEW010 M04/M06 A3010
PAQT 
8nm S 
160209Z AUTO 04010KT 8SM BKN006 BKN014 OVC060 M06/M06 A3009 RMK AO2 T10561061 TSNO
PPNU 
19nm E 
160210Z AUTO 09008KT 030V130 4SM OVC004 M05/M05 A3008 RMK AO1
TAF
PAQT 
8nm S 
151734Z 1518/1618 03004KT P6SM SCT016 BKN029 OVC060 FM161000 06018G25KT 2SM -SN BR SCT003 OVC007
NOTAMs
Click for the latest NOTAMs
NOTAMs are issued by the DoD/FAA and will open in a separate window not controlled by AirNav.

 

 
 

Would you like to see your business listed on this page?

 If your business provides an interesting product or service to pilots, flight crews, aircraft, or users of the Alpine Airstrip, you should consider listing it here.  To start the listing process, click on the button below
 
Add a business
 

Other Pages about Alpine Airstrip

Update a link
 
Copyright © AirNav, LLC. All rights reserved. Privacy Policy  Contact